createdAt,value
2022-09-15T00:02:14.164Z,100451.22
2022-09-15T00:04:46.141Z,100439.94
2022-09-15T00:07:18.042Z,100433.25
2022-09-15T00:09:49.961Z,100440.50
2022-09-15T00:12:22.129Z,100436.09
2022-09-15T00:14:54.341Z,100436.81
2022-09-15T00:17:27.120Z,100444.59
2022-09-15T00:19:59.129Z,100440.41
2022-09-15T00:22:31.031Z,100442.44
2022-09-15T00:25:03.027Z,100445.88
2022-09-15T00:27:35.097Z,100446.84
2022-09-15T00:30:08.502Z,100438.09
2022-09-15T00:32:40.451Z,100441.59
2022-09-15T00:35:12.392Z,100442.34
2022-09-15T00:37:44.396Z,100435.16
2022-09-15T00:40:16.392Z,100441.19
2022-09-15T00:42:48.370Z,100447.41
2022-09-15T00:45:20.535Z,100449.03
2022-09-15T00:47:52.789Z,100441.19
2022-09-15T00:50:24.730Z,100437.66
2022-09-15T00:53:01.793Z,100438.47
2022-09-15T00:55:47.911Z,100443.69
2022-09-15T00:58:49.220Z,100446.38
2022-09-15T01:01:23.963Z,100448.97
2022-09-15T01:03:56.328Z,100450.84
2022-09-15T01:06:53.498Z,100450.25
2022-09-15T01:09:38.718Z,100461.91
2022-09-15T01:12:10.745Z,100466.22
2022-09-15T01:14:42.671Z,100463.22
2022-09-15T01:17:37.605Z,100468.28
2022-09-15T01:20:21.285Z,100454.88
2022-09-15T01:23:31.260Z,100459.03
2022-09-15T01:26:30.900Z,100456.13
2022-09-15T01:29:36.921Z,100457.72
2022-09-15T01:32:48.403Z,100454.91
2022-09-15T01:36:02.024Z,100449.50
2022-09-15T01:38:47.795Z,100457.41
2022-09-15T01:41:28.192Z,100453.72
2022-09-15T01:44:05.450Z,100453.81
2022-09-15T01:46:47.259Z,100447.47
2022-09-15T01:49:34.819Z,100450.06
2022-09-15T01:52:07.346Z,100449.56
2022-09-15T01:54:49.147Z,100460.91
2022-09-15T01:57:21.823Z,100465.13
2022-09-15T01:59:56.265Z,100456.09
2022-09-15T02:03:01.765Z,100451.53
2022-09-15T02:05:42.568Z,100456.63
2022-09-15T02:08:25.452Z,100457.53
2022-09-15T02:11:07.482Z,100453.88
2022-09-15T02:13:55.485Z,100449.41
2022-09-15T02:16:34.342Z,100451.13
2022-09-15T02:19:09.763Z,100450.63
2022-09-15T02:22:28.416Z,100455.66
2022-09-15T02:25:09.873Z,100459.09
2022-09-15T02:27:48.059Z,100457.22
2022-09-15T02:30:21.332Z,100456.22
2022-09-15T02:33:00.938Z,100461.63
2022-09-15T02:35:36.360Z,100461.78
2022-09-15T02:38:10.096Z,100458.41
2022-09-15T02:40:44.547Z,100453.03
2022-09-15T02:43:18.838Z,100457.38
2022-09-15T02:45:50.946Z,100461.78
2022-09-15T02:48:23.101Z,100452.75
2022-09-15T02:50:54.986Z,100466.78
2022-09-15T02:53:26.930Z,100461.47
2022-09-15T02:55:58.903Z,100459.09
2022-09-15T02:58:30.823Z,100448.56
2022-09-15T03:01:07.614Z,100444.22
2022-09-15T03:03:42.854Z,100456.56
2022-09-15T03:06:17.611Z,100458.41
2022-09-15T03:08:56.363Z,100451.34
2022-09-15T03:11:30.484Z,100453.16
2022-09-15T03:14:06.520Z,100457.47
2022-09-15T03:16:38.500Z,100459.09
2022-09-15T03:19:10.468Z,100456.41
2022-09-15T03:21:42.382Z,100452.75
2022-09-15T03:24:15.461Z,100450.09
2022-09-15T03:26:48.294Z,100451.09
2022-09-15T03:29:20.203Z,100461.63
2022-09-15T03:31:52.225Z,100451.00
2022-09-15T03:34:24.163Z,100462.38
2022-09-15T03:36:56.135Z,100461.63
2022-09-15T03:39:28.117Z,100464.53
2022-09-15T03:42:00.442Z,100460.91
2022-09-15T03:44:32.375Z,100467.75
2022-09-15T03:47:04.448Z,100464.16
2022-09-15T03:49:36.395Z,100460.47
2022-09-15T03:52:08.310Z,100456.13
2022-09-15T03:54:40.720Z,100460.38
2022-09-15T03:57:26.888Z,100455.31
2022-09-15T03:59:58.959Z,100457.97
2022-09-15T04:02:30.950Z,100455.41
2022-09-15T04:05:02.975Z,100457.22
2022-09-15T04:07:34.936Z,100452.91
2022-09-15T04:10:10.200Z,100464.31
2022-09-15T04:12:42.215Z,100452.91
2022-09-15T04:15:14.127Z,100457.22
2022-09-15T04:17:47.350Z,100457.97
2022-09-15T04:20:19.278Z,100452.63
2022-09-15T04:22:51.265Z,100456.00
2022-09-15T04:25:24.291Z,100456.97
2022-09-15T04:27:57.672Z,100456.97
2022-09-15T04:30:29.594Z,100451.59
2022-09-15T04:33:01.505Z,100461.09
2022-09-15T04:35:34.152Z,100455.91
2022-09-15T04:38:06.435Z,100439.31
2022-09-15T04:40:38.345Z,100448.06
2022-09-15T04:43:10.812Z,100448.97
2022-09-15T04:45:43.439Z,100456.00
2022-09-15T04:48:15.372Z,100456.81
2022-09-15T04:50:47.289Z,100459.66
2022-09-15T04:53:19.642Z,100458.75
2022-09-15T04:55:51.568Z,100461.53
2022-09-15T04:58:23.493Z,100459.84
2022-09-15T05:00:55.441Z,100459.03
2022-09-15T05:03:27.341Z,100459.91
2022-09-15T05:05:59.300Z,100461.97
2022-09-15T05:08:31.200Z,100470.06
2022-09-15T05:11:12.256Z,100468.19
2022-09-15T05:13:44.545Z,100468.25
2022-09-15T05:16:20.546Z,100467.16
2022-09-15T05:18:56.156Z,100462.59
2022-09-15T05:21:29.229Z,100463.34
2022-09-15T05:24:01.367Z,100459.66
2022-09-15T05:26:33.364Z,100459.81
2022-09-15T05:29:05.415Z,100456.16
2022-09-15T05:31:37.443Z,100455.22
2022-09-15T05:34:11.347Z,100454.50
2022-09-15T05:36:43.393Z,100453.47
2022-09-15T05:39:15.437Z,100460.38
2022-09-15T05:41:47.441Z,100454.53
2022-09-15T05:44:21.556Z,100453.44
2022-09-15T05:46:53.583Z,100455.97
2022-09-15T05:49:25.582Z,100458.44
2022-09-15T05:51:57.487Z,100467.16
2022-09-15T05:54:29.394Z,100467.03
2022-09-15T05:57:01.301Z,100467.75
2022-09-15T05:59:36.064Z,100469.38
2022-09-15T06:02:18.282Z,100477.06
2022-09-15T06:04:50.329Z,100473.06
2022-09-15T06:07:22.243Z,100474.59
2022-09-15T06:09:54.460Z,100468.19
2022-09-15T06:12:27.522Z,100472.97
2022-09-15T06:14:59.871Z,100474.22
2022-09-15T06:17:34.746Z,100477.44
2022-09-15T06:20:07.804Z,100470.75
2022-09-15T06:22:40.180Z,100470.50
2022-09-15T06:25:13.327Z,100471.41
2022-09-15T06:27:45.310Z,100464.97
2022-09-15T06:30:18.007Z,100469.38
2022-09-15T06:32:49.909Z,100471.97
2022-09-15T06:35:21.829Z,100467.00
2022-09-15T06:37:53.800Z,100471.16
2022-09-15T06:40:25.948Z,100474.31
2022-09-15T06:42:57.994Z,100470.47
2022-09-15T06:45:30.917Z,100481.63
2022-09-15T06:48:23.434Z,100477.84
2022-09-15T06:50:56.090Z,100472.63
2022-09-15T06:53:33.406Z,100485.06
2022-09-15T06:56:10.667Z,100479.56
2022-09-15T06:58:44.339Z,100476.94
2022-09-15T07:01:23.252Z,100483.19
2022-09-15T07:04:01.169Z,100476.94
2022-09-15T07:06:34.069Z,100486.63
2022-09-15T07:09:06.795Z,100486.44
2022-09-15T07:11:38.849Z,100484.78
2022-09-15T07:14:11.488Z,100477.44
2022-09-15T07:16:43.523Z,100481.63
2022-09-15T07:19:15.680Z,100482.28
2022-09-15T07:21:47.739Z,100484.63
2022-09-15T07:24:20.033Z,100491.19
2022-09-15T07:26:52.229Z,100488.53
2022-09-15T07:29:24.129Z,100497.97
2022-09-15T07:31:56.182Z,100503.38
2022-09-15T07:34:28.129Z,100502.19
2022-09-15T07:37:00.392Z,100501.72
2022-09-15T07:39:33.250Z,100504.00
2022-09-15T07:42:05.281Z,100504.22
2022-09-15T07:44:37.191Z,100506.81
2022-09-15T07:47:09.174Z,100505.50
2022-09-15T07:49:42.299Z,100495.94
2022-09-15T07:52:14.321Z,100503.53
2022-09-15T07:54:46.270Z,100496.72
2022-09-15T07:57:18.300Z,100508.56
2022-09-15T07:59:50.375Z,100508.41
2022-09-15T08:02:22.928Z,100507.56
2022-09-15T08:04:56.049Z,100519.97
2022-09-15T08:07:30.852Z,100515.38
2022-09-15T08:10:02.795Z,100523.16
2022-09-15T08:12:34.782Z,100516.38
2022-09-15T08:15:07.261Z,100520.53
2022-09-15T08:17:39.283Z,100521.16
2022-09-15T08:20:11.836Z,100530.81
2022-09-15T08:22:45.650Z,100524.03
2022-09-15T08:25:17.676Z,100526.22
2022-09-15T08:27:49.583Z,100523.91
2022-09-15T08:30:21.982Z,100530.59
2022-09-15T08:32:54.195Z,100531.25
2022-09-15T08:35:26.140Z,100528.19
2022-09-15T08:37:58.210Z,100529.34
2022-09-15T08:40:37.625Z,100527.72
2022-09-15T08:43:23.357Z,100543.44
2022-09-15T08:46:04.799Z,100537.72
2022-09-15T08:48:44.026Z,100544.50
2022-09-15T08:51:28.610Z,100545.41
2022-09-15T08:54:08.694Z,100546.69
2022-09-15T08:56:43.491Z,100552.25
2022-09-15T08:59:17.708Z,100559.63
2022-09-15T09:02:06.071Z,100580.50
2022-09-15T09:05:14.496Z,100591.78
2022-09-15T09:08:04.522Z,100588.13
2022-09-15T09:10:55.725Z,100598.19
2022-09-15T09:13:49.595Z,100607.06
2022-09-15T09:17:03.831Z,100610.59
2022-09-15T09:19:56.897Z,100604.81
2022-09-15T09:22:35.108Z,100600.72
2022-09-15T09:25:26.663Z,100586.78
2022-09-15T09:28:02.135Z,100581.47
2022-09-15T09:30:36.369Z,100577.38
2022-09-15T09:33:40.262Z,100576.47
2022-09-15T09:36:13.936Z,100580.22
2022-09-15T09:38:47.571Z,100578.59
2022-09-15T09:41:28.626Z,100578.59
2022-09-15T09:44:00.550Z,100586.31
2022-09-15T09:46:33.240Z,100588.97
2022-09-15T09:49:22.961Z,100578.50
2022-09-15T09:52:00.005Z,100581.53
2022-09-15T09:54:34.055Z,100580.22
2022-09-15T09:57:15.094Z,100576.91
2022-09-15T09:59:49.901Z,100576.94
2022-09-15T10:02:28.935Z,100567.75
2022-09-15T10:05:05.784Z,100571.66
2022-09-15T10:07:43.881Z,100562.38
2022-09-15T10:10:23.726Z,100564.75
2022-09-15T10:12:56.736Z,100561.75
2022-09-15T10:15:32.272Z,100559.44
2022-09-15T10:18:04.383Z,100559.63
2022-09-15T10:20:50.486Z,100552.53
2022-09-15T10:23:28.222Z,100555.53
2022-09-15T10:26:22.654Z,100555.88
2022-09-15T10:29:17.115Z,100563.38
2022-09-15T10:31:49.325Z,100561.00
2022-09-15T10:34:28.557Z,100550.28
2022-09-15T10:37:32.711Z,100553.78
2022-09-15T10:40:47.305Z,100557.50
2022-09-15T10:44:04.625Z,100544.03
2022-09-15T10:47:14.690Z,100542.72
2022-09-15T10:50:31.431Z,100542.53
2022-09-15T10:53:30.793Z,100543.69
2022-09-15T10:56:30.874Z,100533.84
2022-09-15T10:59:40.651Z,100535.41
2022-09-15T11:02:44.315Z,100536.16
2022-09-15T11:05:36.604Z,100539.94
2022-09-15T11:08:43.402Z,100532.81
2022-09-15T11:11:44.584Z,100536.84
2022-09-15T11:15:03.919Z,100544.22
2022-09-15T11:17:41.582Z,100545.03
2022-09-15T11:21:10.370Z,100580.59
2022-09-15T11:24:04.745Z,100584.00
2022-09-15T11:26:54.552Z,100598.53
2022-09-15T11:29:34.149Z,100600.06
2022-09-15T11:32:31.270Z,100599.97
2022-09-15T11:35:26.556Z,100593.34
2022-09-15T11:38:15.995Z,100601.31
2022-09-15T11:40:59.077Z,100598.25
2022-09-15T11:43:59.399Z,100592.06
2022-09-15T11:47:10.141Z,100590.06
2022-09-15T11:49:55.397Z,100582.56
2022-09-15T11:52:54.668Z,100587.91
2022-09-15T11:55:47.780Z,100583.31
2022-09-15T11:58:43.389Z,100588.28
2022-09-15T12:01:20.879Z,100581.72
2022-09-15T12:04:02.346Z,100584.13
2022-09-15T12:06:55.508Z,100579.19
2022-09-15T12:09:27.649Z,100568.06
2022-09-15T12:12:09.385Z,100574.13
2022-09-15T12:14:45.419Z,100570.69
2022-09-15T12:17:43.843Z,100566.28
2022-09-15T12:20:44.495Z,100567.06
2022-09-15T12:23:29.483Z,100571.63
2022-09-15T12:26:34.231Z,100560.44
2022-09-15T12:29:26.211Z,100563.25
2022-09-15T12:32:35.124Z,100567.13
2022-09-15T12:35:19.349Z,100574.53
2022-09-15T12:37:57.276Z,100582.56
2022-09-15T12:40:36.196Z,100586.00
2022-09-15T12:43:11.576Z,100581.59
2022-09-15T12:45:58.557Z,100578.75
2022-09-15T12:48:36.591Z,100583.88
2022-09-15T12:51:10.977Z,100584.81
2022-09-15T12:54:22.247Z,100592.31
2022-09-15T12:56:56.629Z,100596.47
2022-09-15T12:59:29.523Z,100597.75
2022-09-15T13:02:02.719Z,100599.13
2022-09-15T13:04:52.492Z,100598.88
2022-09-15T13:07:35.108Z,100606.22
2022-09-15T13:10:12.656Z,100611.19
2022-09-15T13:12:55.212Z,100610.34
2022-09-15T13:15:29.225Z,100591.00
2022-09-15T13:18:05.880Z,100588.78
2022-09-15T13:20:43.451Z,100586.72
2022-09-15T13:23:16.699Z,100579.34
2022-09-15T13:25:50.155Z,100581.91
2022-09-15T13:28:22.840Z,100585.91
2022-09-15T13:31:19.390Z,100587.44
2022-09-15T13:41:01.080Z,100598.50
2022-09-15T13:44:19.908Z,100606.38
2022-09-15T13:47:35.814Z,100599.25
2022-09-15T13:50:36.320Z,100590.00
2022-09-15T13:54:21.889Z,100583.78
2022-09-15T13:56:53.874Z,100588.91
2022-09-15T13:59:31.299Z,100589.53
2022-09-15T14:02:09.170Z,100590.13
2022-09-15T14:04:41.341Z,100596.75
2022-09-15T14:07:22.601Z,100596.81
2022-09-15T14:09:54.994Z,100594.97
2022-09-15T14:12:27.094Z,100584.69
2022-09-15T14:15:05.662Z,100596.47
2022-09-15T14:17:45.901Z,100598.78
2022-09-15T14:20:31.920Z,100592.88
2022-09-15T14:23:14.064Z,100610.69
2022-09-15T14:25:46.156Z,100609.88
2022-09-15T14:28:28.346Z,100614.91
2022-09-15T14:31:03.548Z,100613.22
2022-09-15T14:33:39.179Z,100620.72
2022-09-15T14:36:22.897Z,100622.94
2022-09-15T14:39:21.694Z,100619.53
2022-09-15T14:41:54.079Z,100616.19
2022-09-15T14:47:33.428Z,100605.78
2022-09-15T14:50:18.561Z,100603.31
2022-09-15T14:53:05.625Z,100600.13
2022-09-15T14:55:52.496Z,100604.69
2022-09-15T14:58:34.016Z,100607.50
2022-09-15T15:01:18.092Z,100612.09
2022-09-15T15:04:24.631Z,100605.69
2022-09-15T15:07:17.269Z,100600.75
2022-09-15T15:09:56.533Z,100602.53
2022-09-15T15:12:36.180Z,100592.91
2022-09-15T15:15:13.287Z,100597.00
2022-09-15T15:17:52.774Z,100601.75
2022-09-15T15:20:33.024Z,100599.75
2022-09-15T15:23:08.072Z,100605.91
2022-09-15T15:25:41.789Z,100610.38
2022-09-15T15:28:30.414Z,100613.09
2022-09-15T15:31:19.675Z,100620.84
2022-09-15T15:33:59.374Z,100618.63
2022-09-15T15:36:34.532Z,100616.28
2022-09-15T15:39:21.983Z,100622.97
2022-09-15T15:42:06.136Z,100620.56
2022-09-15T15:44:38.185Z,100618.13
2022-09-15T15:47:12.831Z,100620.72
2022-09-15T15:50:11.876Z,100617.88
2022-09-15T15:52:37.025Z,100616.91
2022-09-15T15:55:17.842Z,100621.84
2022-09-15T15:57:53.723Z,100611.13
2022-09-15T16:00:40.937Z,100618.09
2022-09-15T16:03:14.296Z,100611.47
2022-09-15T16:05:50.811Z,100609.84
2022-09-15T16:08:28.893Z,100615.00
2022-09-15T16:11:02.534Z,100620.19
2022-09-15T16:13:34.526Z,100629.06
2022-09-15T16:16:27.429Z,100653.34
2022-09-15T16:18:59.396Z,100638.91
2022-09-15T16:21:38.440Z,100632.63
2022-09-15T16:24:15.652Z,100628.28
2022-09-15T16:26:50.622Z,100631.44
2022-09-15T16:29:29.281Z,100631.22
2022-09-15T16:32:07.274Z,100635.88
2022-09-15T16:34:39.241Z,100636.09
2022-09-15T16:37:11.476Z,100627.41
2022-09-15T16:39:43.618Z,100629.47
2022-09-15T16:42:15.607Z,100632.09
2022-09-15T16:44:47.725Z,100618.06
2022-09-15T16:47:19.707Z,100631.31
2022-09-15T16:49:52.695Z,100627.03
2022-09-15T16:52:24.818Z,100629.47
2022-09-15T16:54:57.250Z,100630.41
2022-09-15T16:57:29.205Z,100631.63
2022-09-15T17:00:01.203Z,100634.47
2022-09-15T17:02:33.193Z,100637.00
2022-09-15T17:05:21.220Z,100636.97
2022-09-15T17:07:53.409Z,100641.38
2022-09-15T17:10:25.733Z,100633.47
2022-09-15T17:12:57.732Z,100630.88
2022-09-15T17:15:36.274Z,100625.88
2022-09-15T17:18:10.199Z,100624.66
2022-09-15T17:20:44.434Z,100635.88
2022-09-15T17:23:24.311Z,100637.44
2022-09-15T17:25:59.699Z,100639.16
2022-09-15T17:28:34.473Z,100641.03
2022-09-15T17:31:17.249Z,100645.38
2022-09-15T17:33:50.704Z,100650.63
2022-09-15T17:36:22.650Z,100652.50
2022-09-15T17:38:54.593Z,100652.50
2022-09-15T17:41:26.494Z,100657.84
2022-09-15T17:43:58.602Z,100657.94
2022-09-15T17:46:30.596Z,100653.66
2022-09-15T17:49:02.911Z,100657.16
2022-09-15T17:51:35.288Z,100651.25
2022-09-15T17:54:13.397Z,100655.59
2022-09-15T17:56:45.348Z,100656.66
2022-09-15T17:59:17.357Z,100661.16
2022-09-15T18:01:49.315Z,100662.09
2022-09-15T18:04:21.274Z,100662.13
2022-09-15T18:06:54.042Z,100658.78
2022-09-15T18:09:26.032Z,100657.22
2022-09-15T18:11:57.996Z,100663.34
2022-09-15T18:14:30.658Z,100662.44
2022-09-15T18:17:02.651Z,100666.94
2022-09-15T18:19:34.592Z,100666.88
2022-09-15T18:22:06.672Z,100667.94
2022-09-15T18:24:38.617Z,100661.81
2022-09-15T18:27:10.559Z,100662.72
2022-09-15T18:29:42.693Z,100673.28
2022-09-15T18:32:14.594Z,100663.00
2022-09-15T18:34:47.610Z,100668.22
2022-09-15T18:37:19.613Z,100668.19
2022-09-15T18:39:51.791Z,100673.38
2022-09-15T18:42:27.203Z,100669.94
2022-09-15T18:45:02.214Z,100671.66
2022-09-15T18:47:34.527Z,100665.69
2022-09-15T18:50:07.337Z,100665.81
2022-09-15T18:52:41.356Z,100665.72
2022-09-15T18:55:16.965Z,100670.22
2022-09-15T18:57:49.591Z,100669.50
2022-09-15T19:00:24.885Z,100676.53
2022-09-15T19:02:59.925Z,100676.63
2022-09-15T19:05:33.121Z,100677.78
2022-09-15T19:08:05.239Z,100663.91
2022-09-15T19:10:39.817Z,100670.03
2022-09-15T19:13:14.158Z,100672.56
2022-09-15T19:15:48.190Z,100668.28
2022-09-15T19:18:22.761Z,100665.75
2022-09-15T19:20:54.717Z,100665.88
2022-09-15T19:23:26.703Z,100662.34
2022-09-15T19:26:05.588Z,100663.28
2022-09-15T19:28:37.684Z,100669.41
2022-09-15T19:31:11.196Z,100674.69
2022-09-15T19:33:43.216Z,100675.59
2022-09-15T19:36:27.875Z,100679.09
2022-09-15T19:39:03.147Z,100672.06
2022-09-15T19:41:35.260Z,100679.06
2022-09-15T19:44:10.650Z,100674.72
2022-09-15T19:46:43.460Z,100673.22
2022-09-15T19:49:15.567Z,100685.41
2022-09-15T19:51:53.016Z,100674.00
2022-09-15T19:54:28.133Z,100678.31
2022-09-15T19:57:00.143Z,100680.16
2022-09-15T19:59:32.320Z,100676.47
2022-09-15T20:02:04.564Z,100682.63
2022-09-15T20:04:39.428Z,100684.41
2022-09-15T20:07:12.575Z,100683.44
2022-09-15T20:09:44.918Z,100678.06
2022-09-15T20:12:16.934Z,100681.69
2022-09-15T20:14:48.938Z,100682.50
2022-09-15T20:17:21.180Z,100679.97
2022-09-15T20:19:53.152Z,100685.16
2022-09-15T20:22:25.435Z,100677.25
2022-09-15T20:24:57.507Z,100675.59
2022-09-15T20:27:31.229Z,100683.44
2022-09-15T20:30:03.609Z,100686.03
2022-09-15T20:32:35.541Z,100682.69
2022-09-15T20:35:07.771Z,100682.59
2022-09-15T20:37:39.868Z,100687.84
2022-09-15T20:40:11.855Z,100686.16
2022-09-15T20:42:43.875Z,100685.22
2022-09-15T20:45:15.907Z,100692.28
2022-09-15T20:47:47.882Z,100685.31
2022-09-15T20:50:20.251Z,100686.19
2022-09-15T20:52:52.177Z,100693.19
2022-09-15T20:55:25.637Z,100687.38
2022-09-15T20:57:57.691Z,100688.09
2022-09-15T21:00:33.658Z,100686.31
2022-09-15T21:03:05.932Z,100689.66
2022-09-15T21:05:37.929Z,100687.91
2022-09-15T21:08:11.589Z,100690.50
2022-09-15T21:10:45.597Z,100696.84
2022-09-15T21:13:19.210Z,100697.81
2022-09-15T21:16:00.227Z,100700.38
2022-09-15T21:18:34.945Z,100706.63
2022-09-15T21:21:11.092Z,100704.91
2022-09-15T21:23:54.906Z,100706.63
2022-09-15T21:26:29.941Z,100704.00
2022-09-15T21:29:02.838Z,100696.16
2022-09-15T21:31:34.929Z,100706.03
2022-09-15T21:34:06.897Z,100706.34
2022-09-15T21:36:39.494Z,100704.88
2022-09-15T21:39:11.417Z,100705.78
2022-09-15T21:41:43.356Z,100712.78
2022-09-15T21:44:15.641Z,100712.88
2022-09-15T21:46:47.788Z,100723.50
2022-09-15T21:49:20.261Z,100717.50
2022-09-15T21:51:52.352Z,100709.72
2022-09-15T21:54:24.396Z,100708.09
2022-09-15T21:56:56.869Z,100717.81
2022-09-15T21:59:28.816Z,100719.59
2022-09-15T22:02:00.876Z,100713.53
2022-09-15T22:04:32.974Z,100717.84
2022-09-15T22:07:06.411Z,100717.06
2022-09-15T22:09:38.927Z,100724.13
2022-09-15T22:12:10.836Z,100719.78
2022-09-15T22:14:42.811Z,100723.28
2022-09-15T22:17:15.117Z,100725.06
2022-09-15T22:19:47.021Z,100726.81
2022-09-15T22:22:18.974Z,100721.56
2022-09-15T22:24:50.911Z,100720.66
2022-09-15T22:27:22.819Z,100719.84
2022-09-15T22:29:54.833Z,100726.91
2022-09-15T22:32:28.034Z,100720.81
2022-09-15T22:34:59.952Z,100726.09
2022-09-15T22:37:35.642Z,100718.22
2022-09-15T22:40:08.326Z,100726.94
2022-09-15T22:42:40.282Z,100724.31
2022-09-15T22:45:12.378Z,100726.03
2022-09-15T22:47:44.283Z,100731.28
2022-09-15T22:50:16.300Z,100729.47
2022-09-15T22:52:48.360Z,100724.28
2022-09-15T22:55:20.323Z,100722.47
2022-09-15T22:57:52.287Z,100723.44
2022-09-15T23:00:24.796Z,100730.41
2022-09-15T23:02:56.743Z,100725.16
2022-09-15T23:05:28.825Z,100723.47
2022-09-15T23:08:00.866Z,100721.63
2022-09-15T23:10:33.425Z,100719.81
2022-09-15T23:13:05.420Z,100716.38
2022-09-15T23:15:37.823Z,100724.28
2022-09-15T23:18:10.296Z,100716.34
2022-09-15T23:20:42.631Z,100708.50
2022-09-15T23:23:14.624Z,100717.16
2022-09-15T23:25:46.763Z,100713.66
2022-09-15T23:28:19.047Z,100706.75
2022-09-15T23:30:57.732Z,100715.41
2022-09-15T23:33:31.592Z,100711.97
2022-09-15T23:36:06.012Z,100704.94
2022-09-15T23:38:40.287Z,100707.72
2022-09-15T23:41:14.316Z,100703.25
2022-09-15T23:43:47.194Z,100703.19
2022-09-15T23:46:19.273Z,100705.09
2022-09-15T23:48:51.426Z,100700.84
2022-09-15T23:51:23.339Z,100704.34
2022-09-15T23:53:55.361Z,100703.38
2022-09-15T23:56:27.302Z,100707.88
2022-09-15T23:58:59.451Z,100707.91
